createdAt,value
2022-09-15T00:00:19.300Z,15.30
2022-09-15T00:02:46.354Z,15.40
2022-09-15T00:05:13.728Z,15.40
2022-09-15T00:07:40.557Z,15.30
2022-09-15T00:10:07.700Z,15.30
2022-09-15T00:12:34.440Z,15.30
2022-09-15T00:15:01.191Z,15.30
2022-09-15T00:17:28.045Z,15.40
2022-09-15T00:19:54.676Z,15.40
2022-09-15T00:22:21.322Z,15.40
2022-09-15T00:24:49.266Z,15.40
2022-09-15T00:27:16.742Z,15.40
2022-09-15T00:29:43.558Z,15.40
2022-09-15T00:32:10.511Z,15.40
2022-09-15T00:34:38.163Z,15.30
2022-09-15T00:37:05.020Z,15.20
2022-09-15T00:39:31.631Z,15.30
2022-09-15T00:41:58.219Z,15.20
2022-09-15T00:44:24.751Z,15.20
2022-09-15T00:47:15.211Z,15.10
2022-09-15T00:49:42.748Z,15.10
2022-09-15T00:52:17.771Z,15.10
2022-09-15T00:54:57.741Z,15.00
2022-09-15T00:57:45.509Z,15.00
2022-09-15T01:00:16.123Z,15.00
2022-09-15T01:02:44.522Z,15.00
2022-09-15T01:05:13.820Z,15.00
2022-09-15T01:07:55.808Z,15.00
2022-09-15T01:10:29.088Z,15.00
2022-09-15T01:13:00.280Z,14.90
2022-09-15T01:15:52.538Z,14.90
2022-09-15T01:18:45.035Z,14.90
2022-09-15T01:21:20.481Z,14.80
2022-09-15T01:24:24.172Z,14.80
2022-09-15T01:27:37.812Z,14.80
2022-09-15T01:30:16.983Z,14.90
2022-09-15T01:33:35.360Z,14.90
2022-09-15T01:36:12.953Z,14.90
2022-09-15T01:39:03.548Z,14.90
2022-09-15T01:41:37.753Z,14.80
2022-09-15T01:44:11.078Z,14.80
2022-09-15T01:46:44.834Z,14.80
2022-09-15T01:49:18.414Z,14.80
2022-09-15T01:51:48.032Z,14.80
2022-09-15T01:54:16.289Z,14.80
2022-09-15T01:56:43.875Z,14.80
2022-09-15T01:59:11.196Z,14.80
2022-09-15T02:01:47.245Z,14.80
2022-09-15T02:04:33.054Z,14.70
2022-09-15T02:07:11.515Z,14.60
2022-09-15T02:09:46.488Z,14.70
2022-09-15T02:12:33.946Z,14.60
2022-09-15T02:15:05.629Z,14.60
2022-09-15T02:17:35.363Z,14.60
2022-09-15T02:20:09.028Z,14.60
2022-09-15T02:22:40.141Z,14.60
2022-09-15T02:25:31.975Z,14.60
2022-09-15T02:28:04.280Z,14.60
2022-09-15T02:30:33.122Z,14.50
2022-09-15T02:33:03.772Z,14.40
2022-09-15T02:35:33.052Z,14.50
2022-09-15T02:38:01.153Z,14.50
2022-09-15T02:40:29.434Z,14.50
2022-09-15T02:43:03.199Z,14.40
2022-09-15T02:45:31.328Z,14.40
2022-09-15T02:47:58.934Z,14.30
2022-09-15T02:50:26.613Z,14.30
2022-09-15T02:52:56.818Z,14.30
2022-09-15T02:55:24.258Z,14.30
2022-09-15T02:57:50.860Z,14.20
2022-09-15T03:00:19.343Z,14.20
2022-09-15T03:02:51.581Z,14.20
2022-09-15T03:05:21.456Z,14.20
2022-09-15T03:07:48.472Z,14.20
2022-09-15T03:10:16.099Z,14.20
2022-09-15T03:12:45.336Z,14.20
2022-09-15T03:15:13.717Z,14.20
2022-09-15T03:17:42.630Z,14.00
2022-09-15T03:20:12.228Z,14.00
2022-09-15T03:22:39.333Z,14.00
2022-09-15T03:25:07.296Z,13.90
2022-09-15T03:27:34.862Z,13.90
2022-09-15T03:30:01.851Z,13.90
2022-09-15T03:32:28.489Z,13.80
2022-09-15T03:34:58.350Z,13.70
2022-09-15T03:37:25.743Z,13.70
2022-09-15T03:39:52.475Z,13.70
2022-09-15T03:42:19.777Z,13.70
2022-09-15T03:44:46.380Z,13.70
2022-09-15T03:47:13.081Z,13.60
2022-09-15T03:49:39.772Z,13.70
2022-09-15T03:52:06.475Z,13.70
2022-09-15T03:54:33.064Z,13.80
2022-09-15T03:56:59.630Z,13.80
2022-09-15T03:59:26.260Z,13.90
2022-09-15T04:01:52.960Z,13.90
2022-09-15T04:04:19.536Z,13.90
2022-09-15T04:06:46.273Z,14.00
2022-09-15T04:09:12.953Z,13.90
2022-09-15T04:11:40.828Z,14.00
2022-09-15T04:14:07.501Z,13.90
2022-09-15T04:16:34.264Z,13.80
2022-09-15T04:19:01.512Z,13.70
2022-09-15T04:21:31.607Z,13.80
2022-09-15T04:23:58.405Z,13.70
2022-09-15T04:26:33.372Z,13.70
2022-09-15T04:29:04.600Z,13.60
2022-09-15T04:31:32.765Z,13.60
2022-09-15T04:33:59.462Z,13.50
2022-09-15T04:36:28.328Z,13.60
2022-09-15T04:38:55.968Z,13.50
2022-09-15T04:41:24.912Z,13.50
2022-09-15T04:43:51.880Z,13.50
2022-09-15T04:46:28.700Z,13.50
2022-09-15T04:48:56.181Z,13.50
2022-09-15T04:51:23.794Z,13.50
2022-09-15T04:53:51.533Z,13.50
2022-09-15T04:56:21.013Z,13.50
2022-09-15T04:58:53.511Z,13.50
2022-09-15T05:01:23.284Z,13.50
2022-09-15T05:03:52.314Z,13.50
2022-09-15T05:06:22.066Z,13.40
2022-09-15T05:08:50.591Z,13.40
2022-09-15T05:11:18.245Z,13.40
2022-09-15T05:13:45.219Z,13.30
2022-09-15T05:16:23.099Z,13.30
2022-09-15T05:18:51.583Z,13.20
2022-09-15T05:21:20.783Z,13.20
2022-09-15T05:23:48.490Z,13.20
2022-09-15T05:26:17.866Z,13.10
2022-09-15T05:28:44.907Z,13.10
2022-09-15T05:31:17.712Z,13.20
2022-09-15T05:33:45.358Z,13.20
2022-09-15T05:36:14.306Z,13.20
2022-09-15T05:38:41.389Z,13.30
2022-09-15T05:41:11.468Z,13.20
2022-09-15T05:43:40.907Z,13.20
2022-09-15T05:46:08.065Z,13.30
2022-09-15T05:48:34.944Z,13.30
2022-09-15T05:51:01.868Z,13.50
2022-09-15T05:53:32.991Z,13.60
2022-09-15T05:56:04.314Z,13.60
2022-09-15T05:58:31.508Z,13.70
2022-09-15T06:01:05.539Z,13.80
2022-09-15T06:03:32.677Z,13.80
2022-09-15T06:06:00.752Z,13.90
2022-09-15T06:08:35.330Z,13.90
2022-09-15T06:11:04.639Z,14.00
2022-09-15T06:13:31.516Z,14.00
2022-09-15T06:16:08.965Z,14.10
2022-09-15T06:18:37.298Z,14.00
2022-09-15T06:21:12.852Z,14.10
2022-09-15T06:23:40.424Z,14.10
2022-09-15T06:26:08.147Z,14.10
2022-09-15T06:28:35.047Z,14.10
2022-09-15T06:31:01.668Z,14.10
2022-09-15T06:33:28.326Z,14.10
2022-09-15T06:35:54.945Z,14.10
2022-09-15T06:38:21.619Z,14.20
2022-09-15T06:40:56.339Z,14.30
2022-09-15T06:43:23.028Z,14.30
2022-09-15T06:45:49.757Z,14.40
2022-09-15T06:48:24.528Z,14.40
2022-09-15T06:50:55.556Z,14.40
2022-09-15T06:53:22.246Z,14.50
2022-09-15T06:55:48.981Z,14.60
2022-09-15T06:58:15.759Z,14.50
2022-09-15T07:00:42.978Z,14.60
2022-09-15T07:03:09.712Z,14.60
2022-09-15T07:05:36.467Z,14.60
2022-09-15T07:08:03.327Z,14.70
2022-09-15T07:10:31.007Z,14.80
2022-09-15T07:12:58.874Z,14.80
2022-09-15T07:15:27.326Z,14.80
2022-09-15T07:17:54.128Z,14.90
2022-09-15T07:20:21.526Z,14.80
2022-09-15T07:22:48.159Z,14.80
2022-09-15T07:25:14.794Z,14.80
2022-09-15T07:27:42.039Z,14.80
2022-09-15T07:30:09.063Z,14.90
2022-09-15T07:32:35.636Z,14.90
2022-09-15T07:35:02.500Z,14.90
2022-09-15T07:37:29.401Z,15.00
2022-09-15T07:39:56.041Z,15.00
2022-09-15T07:42:22.650Z,15.10
2022-09-15T07:44:49.242Z,15.20
2022-09-15T07:47:15.811Z,15.20
2022-09-15T07:49:43.277Z,15.30
2022-09-15T07:52:10.351Z,15.20
2022-09-15T07:54:36.977Z,15.30
2022-09-15T07:57:05.797Z,15.40
2022-09-15T07:59:32.835Z,15.50
2022-09-15T08:02:29.931Z,15.50
2022-09-15T08:04:57.925Z,15.50
2022-09-15T08:07:24.784Z,15.50
2022-09-15T08:09:51.429Z,15.50
2022-09-15T08:12:19.108Z,15.40
2022-09-15T08:14:45.699Z,15.30
2022-09-15T08:17:12.335Z,15.20
2022-09-15T08:19:43.009Z,15.20
2022-09-15T08:22:09.591Z,15.30
2022-09-15T08:24:37.404Z,15.30
2022-09-15T08:27:04.142Z,15.30
2022-09-15T08:29:30.998Z,15.40
2022-09-15T08:31:57.571Z,15.50
2022-09-15T08:34:24.538Z,15.70
2022-09-15T08:36:56.268Z,15.90
2022-09-15T08:39:22.964Z,16.00
2022-09-15T08:42:01.014Z,16.20
2022-09-15T08:44:43.680Z,16.40
2022-09-15T08:47:23.023Z,16.50
2022-09-15T08:50:10.245Z,16.60
2022-09-15T08:52:57.906Z,16.80
2022-09-15T08:55:45.429Z,17.20
2022-09-15T08:58:35.007Z,17.50
2022-09-15T09:01:10.824Z,17.80
2022-09-15T09:04:18.013Z,18.30
2022-09-15T09:07:08.677Z,18.40
2022-09-15T09:10:00.347Z,18.70
2022-09-15T09:12:48.116Z,18.40
2022-09-15T09:15:28.755Z,18.40
2022-09-15T09:18:39.314Z,18.60
2022-09-15T09:21:29.983Z,18.60
2022-09-15T09:24:03.198Z,18.40
2022-09-15T09:26:33.052Z,18.40
2022-09-15T09:29:01.954Z,19.00
2022-09-15T09:31:29.429Z,19.30
2022-09-15T09:34:20.649Z,19.80
2022-09-15T09:36:58.179Z,19.70
2022-09-15T09:39:26.635Z,20.00
2022-09-15T09:41:54.515Z,20.70
2022-09-15T09:44:21.403Z,21.60
2022-09-15T09:46:49.194Z,22.10
2022-09-15T09:49:20.905Z,22.70
2022-09-15T09:51:57.123Z,23.10
2022-09-15T09:54:27.231Z,22.00
2022-09-15T09:56:55.216Z,21.20
2022-09-15T09:59:38.341Z,20.20
2022-09-15T10:02:26.485Z,19.60
2022-09-15T10:04:55.549Z,18.90
2022-09-15T10:07:25.566Z,18.80
2022-09-15T10:10:01.038Z,18.60
2022-09-15T10:12:41.299Z,19.30
2022-09-15T10:15:23.143Z,19.90
2022-09-15T10:17:50.226Z,20.30
2022-09-15T10:20:32.202Z,20.20
2022-09-15T10:23:24.573Z,19.90
2022-09-15T10:25:59.439Z,19.50
2022-09-15T10:28:27.590Z,19.40
2022-09-15T10:31:13.376Z,19.40
2022-09-15T10:33:44.976Z,19.10
2022-09-15T10:36:28.099Z,18.70
2022-09-15T10:39:12.862Z,18.70
2022-09-15T10:41:58.976Z,19.10
2022-09-15T10:44:52.450Z,19.00
2022-09-15T10:47:46.114Z,19.00
2022-09-15T10:50:35.255Z,19.10
2022-09-15T10:53:04.558Z,19.20
2022-09-15T10:55:55.137Z,19.10
2022-09-15T10:58:45.734Z,19.10
2022-09-15T11:01:28.848Z,19.00
2022-09-15T11:04:37.265Z,19.30
2022-09-15T11:07:37.803Z,19.40
2022-09-15T11:10:07.485Z,19.50
2022-09-15T11:13:06.238Z,19.80
2022-09-15T11:15:38.405Z,20.00
2022-09-15T11:18:13.906Z,20.30
2022-09-15T11:20:46.219Z,20.30
2022-09-15T11:23:36.131Z,20.20
2022-09-15T11:26:16.036Z,19.90
2022-09-15T11:28:50.518Z,19.80
2022-09-15T11:31:30.575Z,19.80
2022-09-15T11:34:11.436Z,19.80
2022-09-15T11:36:50.976Z,20.00
2022-09-15T11:39:26.304Z,20.40
2022-09-15T11:42:07.809Z,20.60
2022-09-15T11:44:43.259Z,21.00
2022-09-15T11:47:28.678Z,21.00
2022-09-15T11:50:11.735Z,20.70
2022-09-15T11:53:00.096Z,20.30
2022-09-15T11:55:45.232Z,20.00
2022-09-15T11:58:33.346Z,19.70
2022-09-15T12:01:08.937Z,19.60
2022-09-15T12:03:59.415Z,19.20
2022-09-15T12:06:45.915Z,19.00
2022-09-15T12:09:16.460Z,18.80
2022-09-15T12:11:57.556Z,18.50
2022-09-15T12:14:32.253Z,18.40
2022-09-15T12:17:00.001Z,18.30
2022-09-15T12:19:33.369Z,18.20
2022-09-15T12:22:23.584Z,18.10
2022-09-15T12:25:13.584Z,18.10
2022-09-15T12:27:40.271Z,18.30
2022-09-15T12:30:40.462Z,18.40
2022-09-15T12:33:44.284Z,18.60
2022-09-15T12:36:35.176Z,18.80
2022-09-15T12:39:04.312Z,18.80
2022-09-15T12:41:32.104Z,18.90
2022-09-15T12:44:06.252Z,18.80
2022-09-15T12:46:33.075Z,18.90
2022-09-15T12:49:03.023Z,18.80
2022-09-15T12:51:30.484Z,18.80
2022-09-15T12:54:04.679Z,18.60
2022-09-15T12:56:34.423Z,18.70
2022-09-15T12:59:06.936Z,18.70
2022-09-15T13:01:50.414Z,18.80
2022-09-15T13:04:25.668Z,19.10
2022-09-15T13:07:21.300Z,19.90
2022-09-15T13:10:27.052Z,20.40
2022-09-15T13:13:03.914Z,20.80
2022-09-15T13:15:30.888Z,21.10
2022-09-15T13:17:58.380Z,21.60
2022-09-15T13:20:31.977Z,22.10
2022-09-15T13:23:01.231Z,22.60
2022-09-15T13:25:29.880Z,22.40
2022-09-15T13:28:01.385Z,21.60
2022-09-15T13:31:18.680Z,21.10
2022-09-15T13:40:44.744Z,20.60
2022-09-15T13:43:21.718Z,20.30
2022-09-15T13:45:57.840Z,20.00
2022-09-15T13:48:48.240Z,19.70
2022-09-15T13:51:27.604Z,19.30
2022-09-15T13:53:59.616Z,19.10
2022-09-15T13:56:29.939Z,18.90
2022-09-15T13:59:08.702Z,18.80
2022-09-15T14:01:40.566Z,18.70
2022-09-15T14:04:30.506Z,18.50
2022-09-15T14:07:01.327Z,18.40
2022-09-15T14:09:31.025Z,18.40
2022-09-15T14:12:02.395Z,18.40
2022-09-15T14:14:51.397Z,18.40
2022-09-15T14:17:19.166Z,18.30
2022-09-15T14:19:48.901Z,18.60
2022-09-15T14:22:24.754Z,18.80
2022-09-15T14:24:52.044Z,18.90
2022-09-15T14:27:30.505Z,19.00
2022-09-15T14:30:01.025Z,18.90
2022-09-15T14:32:31.406Z,18.80
2022-09-15T14:34:59.649Z,18.80
2022-09-15T14:37:32.135Z,18.90
2022-09-15T14:40:01.533Z,18.90
2022-09-15T14:42:36.283Z,18.90
2022-09-15T14:48:05.986Z,18.80
2022-09-15T14:50:33.754Z,18.80
2022-09-15T14:53:06.999Z,18.80
2022-09-15T14:56:12.742Z,18.90
2022-09-15T14:58:45.499Z,18.80
2022-09-15T15:01:24.235Z,18.90
2022-09-15T15:04:10.198Z,18.90
2022-09-15T15:06:43.668Z,18.90
2022-09-15T15:09:39.112Z,18.80
2022-09-15T15:12:16.176Z,18.70
2022-09-15T15:14:43.251Z,18.50
2022-09-15T15:17:37.797Z,18.50
2022-09-15T15:20:10.663Z,18.40
2022-09-15T15:22:38.645Z,18.30
2022-09-15T15:25:24.523Z,18.10
2022-09-15T15:27:59.164Z,17.90
2022-09-15T15:30:31.670Z,17.70
2022-09-15T15:33:04.788Z,17.60
2022-09-15T15:35:33.293Z,17.60
2022-09-15T15:38:06.193Z,17.50
2022-09-15T15:40:33.573Z,17.40
2022-09-15T15:43:07.777Z,17.30
2022-09-15T15:45:46.999Z,17.20
2022-09-15T15:48:13.790Z,17.20
2022-09-15T15:50:40.588Z,17.10
2022-09-15T15:53:09.175Z,17.20
2022-09-15T15:55:38.863Z,17.10
2022-09-15T15:58:05.753Z,17.00
2022-09-15T16:00:50.981Z,16.90
2022-09-15T16:03:19.348Z,16.70
2022-09-15T16:05:52.331Z,16.60
2022-09-15T16:08:31.051Z,16.50
2022-09-15T16:10:59.312Z,16.40
2022-09-15T16:13:34.907Z,16.30
2022-09-15T16:16:02.416Z,16.30
2022-09-15T16:18:29.599Z,16.10
2022-09-15T16:20:56.298Z,16.00
2022-09-15T16:23:23.458Z,15.90
2022-09-15T16:25:59.140Z,15.90
2022-09-15T16:28:26.144Z,15.90
2022-09-15T16:30:52.764Z,15.80
2022-09-15T16:33:19.392Z,15.80
2022-09-15T16:36:03.952Z,15.80
2022-09-15T16:38:30.925Z,15.80
2022-09-15T16:40:59.450Z,15.80
2022-09-15T16:43:26.334Z,15.90
2022-09-15T16:45:53.686Z,16.00
2022-09-15T16:48:20.886Z,16.00
2022-09-15T16:51:17.161Z,16.00
2022-09-15T16:53:36.252Z,16.10
2022-09-15T16:56:03.230Z,16.10
2022-09-15T16:58:31.150Z,16.10
2022-09-15T17:00:58.392Z,16.10
2022-09-15T17:03:26.654Z,16.00
2022-09-15T17:05:59.008Z,15.90
2022-09-15T17:08:31.405Z,15.80
2022-09-15T17:11:03.875Z,15.70
2022-09-15T17:13:32.987Z,15.80
2022-09-15T17:16:01.783Z,15.80
2022-09-15T17:18:33.800Z,15.70
2022-09-15T17:21:04.056Z,15.80
2022-09-15T17:23:36.921Z,15.70
2022-09-15T17:26:15.421Z,15.80
2022-09-15T17:28:42.335Z,15.70
2022-09-15T17:31:18.033Z,15.70
2022-09-15T17:33:45.760Z,15.70
2022-09-15T17:36:12.942Z,15.70
2022-09-15T17:38:42.612Z,15.80
2022-09-15T17:41:18.540Z,15.70
2022-09-15T17:43:45.715Z,15.70
2022-09-15T17:46:12.718Z,15.60
2022-09-15T17:48:39.586Z,15.60
2022-09-15T17:51:09.690Z,15.60
2022-09-15T17:53:36.338Z,15.60
2022-09-15T17:56:04.217Z,15.60
2022-09-15T17:58:32.013Z,15.50
2022-09-15T18:01:13.395Z,15.40
2022-09-15T18:03:40.189Z,15.40
2022-09-15T18:06:08.690Z,15.30
2022-09-15T18:08:36.172Z,15.30
2022-09-15T18:11:04.769Z,15.30
2022-09-15T18:13:31.927Z,15.20
2022-09-15T18:16:05.297Z,15.30
2022-09-15T18:18:31.976Z,15.20
2022-09-15T18:21:01.409Z,15.20
2022-09-15T18:23:29.748Z,15.20
2022-09-15T18:25:58.198Z,15.20
2022-09-15T18:31:09.682Z,15.20
2022-09-15T18:33:36.333Z,15.20
2022-09-15T18:36:06.696Z,15.20
2022-09-15T18:38:33.412Z,15.20
2022-09-15T18:41:00.180Z,15.20
2022-09-15T18:43:27.849Z,15.20
2022-09-15T18:45:59.263Z,15.20
2022-09-15T18:48:26.190Z,15.10
2022-09-15T18:50:53.379Z,15.10
2022-09-15T18:53:20.188Z,15.10
2022-09-15T18:55:47.338Z,15.10
2022-09-15T18:58:14.050Z,15.00
2022-09-15T19:00:41.245Z,15.00
2022-09-15T19:03:09.521Z,15.00
2022-09-15T19:05:36.991Z,15.00
2022-09-15T19:08:04.494Z,15.00
2022-09-15T19:10:31.160Z,15.00
2022-09-15T19:12:57.746Z,15.00
2022-09-15T19:15:24.398Z,15.00
2022-09-15T19:17:51.457Z,15.00
2022-09-15T19:20:18.569Z,15.00
2022-09-15T19:22:46.025Z,15.00
2022-09-15T19:25:13.415Z,14.90
2022-09-15T19:27:40.321Z,14.90
2022-09-15T19:30:09.912Z,14.90
2022-09-15T19:32:38.219Z,14.90
2022-09-15T19:35:05.559Z,14.90
2022-09-15T19:37:36.971Z,14.90
2022-09-15T19:40:08.387Z,14.90
2022-09-15T19:42:35.712Z,14.90
2022-09-15T19:45:02.431Z,14.80
2022-09-15T19:47:30.189Z,14.80
2022-09-15T19:49:56.917Z,14.80
2022-09-15T19:52:23.637Z,14.80
2022-09-15T19:54:50.240Z,14.70
2022-09-15T19:57:16.928Z,14.70
2022-09-15T19:59:44.633Z,14.70
2022-09-15T20:02:11.969Z,14.70
2022-09-15T20:04:39.493Z,14.70
2022-09-15T20:07:06.567Z,14.70
2022-09-15T20:09:33.290Z,14.80
2022-09-15T20:12:03.184Z,14.80
2022-09-15T20:14:30.867Z,14.70
2022-09-15T20:17:00.939Z,14.70
2022-09-15T20:19:28.916Z,14.70
2022-09-15T20:21:55.904Z,14.70
2022-09-15T20:24:24.022Z,14.70
2022-09-15T20:26:51.243Z,14.70
2022-09-15T20:29:18.916Z,14.60
2022-09-15T20:31:46.117Z,14.60
2022-09-15T20:34:15.306Z,14.60
2022-09-15T20:36:43.520Z,14.60
2022-09-15T20:39:13.483Z,14.60
2022-09-15T20:41:44.770Z,14.60
2022-09-15T20:44:11.711Z,14.50
2022-09-15T20:46:38.457Z,14.50
2022-09-15T20:49:05.445Z,14.50
2022-09-15T20:51:33.646Z,14.40
2022-09-15T20:54:03.287Z,14.40
2022-09-15T20:56:31.792Z,14.40
2022-09-15T20:58:59.872Z,14.40
2022-09-15T21:01:34.137Z,14.40
2022-09-15T21:04:01.108Z,14.30
2022-09-15T21:06:28.869Z,14.30
2022-09-15T21:08:56.634Z,14.30
2022-09-15T21:11:25.295Z,14.30
2022-09-15T21:13:52.417Z,14.30
2022-09-15T21:16:21.589Z,14.30
2022-09-15T21:18:50.794Z,14.40
2022-09-15T21:21:21.553Z,14.30
2022-09-15T21:23:50.336Z,14.30
2022-09-15T21:26:19.542Z,14.30
2022-09-15T21:28:46.924Z,14.30
2022-09-15T21:31:15.926Z,14.20
2022-09-15T21:33:43.590Z,14.10
2022-09-15T21:36:12.531Z,14.10
2022-09-15T21:38:41.718Z,14.10
2022-09-15T21:41:10.198Z,14.10
2022-09-15T21:43:40.120Z,14.10
2022-09-15T21:46:10.814Z,14.10
2022-09-15T21:48:37.995Z,14.00
2022-09-15T21:51:05.981Z,14.00
2022-09-15T21:53:35.008Z,14.10
2022-09-15T21:56:03.435Z,14.10
2022-09-15T21:58:38.984Z,14.10
2022-09-15T22:01:25.896Z,14.10
2022-09-15T22:03:58.512Z,14.10
2022-09-15T22:06:30.078Z,14.10
2022-09-15T22:08:57.349Z,14.10
2022-09-15T22:11:24.178Z,14.00
2022-09-15T22:13:50.965Z,14.00
2022-09-15T22:16:20.552Z,14.00
2022-09-15T22:18:48.209Z,14.00
2022-09-15T22:21:16.242Z,13.90
2022-09-15T22:23:44.393Z,13.90
2022-09-15T22:26:14.451Z,14.00
2022-09-15T22:28:41.395Z,14.00
2022-09-15T22:31:10.524Z,14.00
2022-09-15T22:33:38.454Z,14.00
2022-09-15T22:36:13.427Z,13.90
2022-09-15T22:38:40.638Z,13.90
2022-09-15T22:43:52.851Z,13.90
2022-09-15T22:46:20.905Z,13.90
2022-09-15T22:48:47.773Z,14.00
2022-09-15T22:51:15.531Z,13.90
2022-09-15T22:53:42.365Z,13.90
2022-09-15T22:56:13.989Z,13.80
2022-09-15T22:58:43.799Z,13.80
2022-09-15T23:01:13.470Z,13.70
2022-09-15T23:03:40.432Z,13.80
2022-09-15T23:06:08.469Z,13.80
2022-09-15T23:08:36.012Z,13.70
2022-09-15T23:11:03.724Z,13.70
2022-09-15T23:13:30.374Z,13.60
2022-09-15T23:15:57.050Z,13.70
2022-09-15T23:18:23.771Z,13.60
2022-09-15T23:21:02.343Z,13.60
2022-09-15T23:23:29.687Z,13.60
2022-09-15T23:25:56.911Z,13.50
2022-09-15T23:28:23.740Z,13.50
2022-09-15T23:30:55.591Z,13.50
2022-09-15T23:33:23.911Z,13.60
2022-09-15T23:35:51.632Z,13.50
2022-09-15T23:38:20.099Z,13.50
2022-09-15T23:40:48.201Z,13.50
2022-09-15T23:43:15.440Z,13.50
2022-09-15T23:45:43.084Z,13.50
2022-09-15T23:48:10.428Z,13.50
2022-09-15T23:50:38.598Z,13.40
2022-09-15T23:53:05.933Z,13.40
2022-09-15T23:55:32.761Z,13.40
2022-09-15T23:57:59.396Z,13.30
